createdAt,value
2016-03-27T12:13:07.720Z,990.24
2016-03-27T12:14:07.801Z,990.24
2016-03-27T12:15:07.710Z,990.27
2016-03-27T12:16:07.712Z,990.33
2016-03-27T12:17:07.731Z,990.33
2016-03-27T12:18:07.733Z,990.29
2016-03-27T12:19:07.736Z,990.34
2016-03-27T12:20:07.738Z,990.29
2016-03-27T12:21:07.758Z,990.25
2016-03-27T12:22:07.776Z,990.24
2016-03-27T12:23:07.762Z,990.26
2016-03-27T12:24:07.782Z,990.15
2016-03-27T12:25:07.799Z,990.09
2016-03-27T12:26:07.833Z,990.1
2016-03-27T12:28:07.839Z,990.04
2016-03-27T12:29:07.842Z,990.06
2016-03-27T12:30:07.859Z,990.04
2016-03-27T12:31:07.862Z,989.99
2016-03-27T12:32:07.881Z,989.95
2016-03-27T12:33:07.898Z,989.98
2016-03-27T12:34:07.901Z,989.91
2016-03-27T12:35:07.920Z,989.96
2016-03-27T12:36:07.939Z,989.93
2016-03-27T12:37:07.941Z,989.95
2016-03-27T12:38:07.959Z,989.83
2016-03-27T12:39:07.962Z,989.88
2016-03-27T12:40:07.980Z,989.84
2016-03-27T12:41:07.999Z,989.86
2016-03-27T12:42:08.001Z,989.78
2016-03-27T12:43:08.020Z,989.78
2016-03-27T12:44:08.022Z,989.73
2016-03-27T12:45:08.040Z,989.73
2016-03-27T12:46:08.058Z,989.65
2016-03-27T12:47:08.061Z,989.68
2016-03-27T12:48:08.080Z,989.64
2016-03-27T12:49:08.082Z,989.65
2016-03-27T12:50:08.102Z,989.67
2016-03-27T12:51:08.119Z,989.67
2016-03-27T12:52:08.121Z,989.7
2016-03-27T12:53:08.141Z,989.68
2016-03-27T12:54:08.143Z,989.68
2016-03-27T12:55:08.162Z,989.66
2016-03-27T12:56:08.179Z,989.67
2016-03-27T12:57:08.182Z,989.59
2016-03-27T12:58:08.201Z,989.57
2016-03-27T12:59:08.218Z,989.57
2016-03-27T13:00:08.237Z,989.6
2016-03-27T13:01:08.240Z,989.55
2016-03-27T13:02:08.258Z,989.56
2016-03-27T13:03:08.261Z,989.58
2016-03-27T13:04:08.279Z,989.56
2016-03-27T13:05:08.298Z,989.56
2016-03-27T13:06:08.300Z,989.58
2016-03-27T13:07:08.319Z,989.52
2016-03-27T13:08:08.321Z,989.52
2016-03-27T13:09:08.339Z,989.49
2016-03-27T13:10:08.358Z,989.52
2016-03-27T13:11:08.376Z,989.5
2016-03-27T13:12:08.378Z,989.51
2016-03-27T13:13:08.381Z,989.51
2016-03-27T13:14:08.400Z,989.51
2016-03-27T13:15:08.418Z,989.49
2016-03-27T13:16:08.421Z,989.48
2016-03-27T13:17:08.455Z,989.49
2016-03-27T13:18:08.458Z,989.5
2016-03-27T13:19:08.461Z,989.49
2016-03-27T13:20:08.479Z,989.48
2016-03-27T13:21:08.497Z,989.49
2016-03-27T13:22:08.499Z,989.53
2016-03-27T13:23:08.517Z,989.68
2016-03-27T13:24:08.536Z,989.63
2016-03-27T13:25:08.554Z,989.6
2016-03-27T13:26:08.557Z,989.61
2016-03-27T13:27:08.576Z,989.64
2016-03-27T13:28:08.594Z,989.64
2016-03-27T13:29:08.596Z,989.57
2016-03-27T13:30:08.614Z,989.56
2016-03-27T13:31:08.649Z,989.65
2016-03-27T13:32:08.636Z,989.66
2016-03-27T13:33:08.654Z,989.68
2016-03-27T13:34:08.673Z,989.64
2016-03-27T13:35:08.690Z,989.67
2016-03-27T13:36:08.693Z,989.63
2016-03-27T13:37:08.711Z,989.62
2016-03-27T13:38:08.730Z,989.72
2016-03-27T13:39:08.826Z,989.69
2016-03-27T13:40:08.751Z,989.7
2016-03-27T13:41:08.769Z,989.67
2016-03-27T13:42:08.772Z,989.68
2016-03-27T13:43:08.791Z,989.7
2016-03-27T13:44:08.808Z,989.66
2016-03-27T13:45:08.811Z,989.64
2016-03-27T13:46:08.845Z,989.69
2016-03-27T13:47:08.847Z,989.65
2016-03-27T13:48:08.851Z,989.68
2016-03-27T13:49:08.869Z,989.66
2016-03-27T13:50:08.887Z,989.66
2016-03-27T13:51:08.890Z,989.68
2016-03-27T13:52:08.907Z,989.64
2016-03-27T13:53:08.927Z,989.7
2016-03-27T13:54:08.929Z,989.79
2016-03-27T13:55:08.948Z,989.76
2016-03-27T13:56:08.966Z,989.79
2016-03-27T13:57:08.969Z,989.75
2016-03-27T13:58:08.987Z,989.78
2016-03-27T13:59:09.004Z,989.74
2016-03-27T14:00:09.008Z,989.72
2016-03-27T14:01:09.026Z,989.71
2016-03-27T14:02:09.045Z,989.72
2016-03-27T14:03:09.047Z,989.71
2016-03-27T14:04:09.065Z,989.73
2016-03-27T14:05:09.084Z,989.72
2016-03-27T14:06:09.086Z,989.76
2016-03-27T14:07:09.105Z,989.75
2016-03-27T14:08:09.326Z,989.74
2016-03-27T14:09:09.126Z,989.73
2016-03-27T14:10:09.159Z,989.71
2016-03-27T14:11:09.162Z,989.73
2016-03-27T14:12:09.181Z,989.72
2016-03-27T14:13:09.183Z,989.72
2016-03-27T14:14:09.202Z,989.75
2016-03-27T14:15:09.220Z,989.75
2016-03-27T14:16:09.223Z,989.73
2016-03-27T14:17:09.241Z,989.73
2016-03-27T14:18:09.259Z,989.74
2016-03-27T14:19:09.309Z,989.76
2016-03-27T14:20:09.280Z,989.78
2016-03-27T14:21:09.283Z,989.76
2016-03-27T14:22:09.301Z,989.71
2016-03-27T14:23:09.320Z,989.74
2016-03-27T14:24:09.338Z,989.74
2016-03-27T14:25:09.340Z,989.78
2016-03-27T14:26:09.360Z,989.77
2016-03-27T14:27:09.362Z,989.79
2016-03-27T14:28:09.396Z,989.84
2016-03-27T14:29:09.398Z,989.8
2016-03-27T14:30:09.401Z,989.74
2016-03-27T14:31:09.420Z,989.75
2016-03-27T14:32:09.437Z,989.74
2016-03-27T14:33:09.456Z,989.77
2016-03-27T14:34:09.474Z,989.79
2016-03-27T14:35:09.461Z,989.72
2016-03-27T14:36:09.479Z,989.74
2016-03-27T14:37:09.498Z,989.73
2016-03-27T14:38:09.517Z,989.75
2016-03-27T14:39:09.534Z,989.79
2016-03-27T14:40:09.537Z,989.76
2016-03-27T14:41:09.540Z,989.79
2016-03-27T14:42:09.558Z,989.76
2016-03-27T14:43:09.561Z,989.83
2016-03-27T14:44:09.580Z,989.81
2016-03-27T14:45:09.597Z,989.8
2016-03-27T14:46:09.600Z,989.83
2016-03-27T14:47:09.619Z,989.86
2016-03-27T14:48:09.621Z,989.84
2016-03-27T14:49:09.671Z,989.85
2016-03-27T14:50:09.642Z,989.86
2016-03-27T14:51:09.661Z,989.85
2016-03-27T14:52:09.679Z,989.84
2016-03-27T14:53:09.682Z,989.82
2016-03-27T14:54:09.700Z,989.81
2016-03-27T14:55:09.702Z,989.8
2016-03-27T14:56:09.721Z,989.82
2016-03-27T14:57:09.723Z,989.84
2016-03-27T14:58:09.743Z,989.85
2016-03-27T14:59:09.745Z,989.82
2016-03-27T15:00:09.762Z,989.82
2016-03-27T15:01:09.766Z,989.81
2016-03-27T15:02:09.784Z,989.81
2016-03-27T15:03:09.817Z,989.81
2016-03-27T15:04:09.962Z,989.84
2016-03-27T15:05:09.823Z,989.86
2016-03-27T15:06:09.826Z,989.83
2016-03-27T15:07:09.844Z,989.86
2016-03-27T15:08:09.848Z,989.82
2016-03-27T15:09:09.865Z,989.83
2016-03-27T15:10:09.867Z,989.82
2016-03-27T15:11:09.886Z,989.84
2016-03-27T15:12:09.905Z,989.92
2016-03-27T15:13:09.908Z,989.9
2016-03-27T15:14:09.925Z,989.9
2016-03-27T15:15:09.928Z,989.91
2016-03-27T15:16:09.947Z,989.94
2016-03-27T15:17:09.949Z,989.88
2016-03-27T15:18:09.952Z,989.93
2016-03-27T15:19:09.970Z,989.94
2016-03-27T15:20:09.989Z,989.96
2016-03-27T15:21:09.991Z,989.92
2016-03-27T15:22:10.010Z,989.97
2016-03-27T15:23:10.012Z,989.95
2016-03-27T15:24:10.030Z,989.94
2016-03-27T15:25:10.033Z,989.94
2016-03-27T15:26:10.051Z,989.91
2016-03-27T15:27:10.054Z,989.9
2016-03-27T15:28:10.073Z,989.94
2016-03-27T15:29:10.076Z,989.91
2016-03-27T15:30:10.093Z,989.93
2016-03-27T15:31:10.096Z,989.9
2016-03-27T15:32:10.115Z,989.95
2016-03-27T15:33:10.117Z,989.91
2016-03-27T15:34:10.121Z,989.9
2016-03-27T15:35:10.232Z,989.88
2016-03-27T15:36:10.141Z,989.9
2016-03-27T15:37:10.159Z,989.93
2016-03-27T15:38:10.178Z,989.93
2016-03-27T15:39:10.181Z,989.89
2016-03-27T15:40:10.198Z,989.89
2016-03-27T15:41:10.264Z,989.89
2016-03-27T15:42:10.204Z,989.87
2016-03-27T15:43:10.222Z,989.85
2016-03-27T15:44:10.225Z,989.87
2016-03-27T15:45:10.243Z,989.86
2016-03-27T15:46:10.247Z,989.88
2016-03-27T15:47:10.249Z,989.83
2016-03-27T15:48:10.267Z,989.84
2016-03-27T15:49:10.270Z,989.84
2016-03-27T15:50:10.288Z,989.83
2016-03-27T15:51:10.291Z,989.86
2016-03-27T15:52:10.308Z,989.85
2016-03-27T15:53:10.311Z,989.88
2016-03-27T15:54:10.314Z,989.91
2016-03-27T15:55:10.333Z,989.88
2016-03-27T15:56:10.335Z,989.89
2016-03-27T15:57:10.354Z,989.88
2016-03-27T15:58:10.357Z,989.87
2016-03-27T15:59:10.577Z,989.94
2016-03-27T16:00:10.377Z,989.92
2016-03-27T16:01:10.396Z,989.91
2016-03-27T16:02:10.399Z,989.9
2016-03-27T16:03:10.401Z,989.94
2016-03-27T16:04:10.653Z,989.94
2016-03-27T16:05:10.422Z,989.97
2016-03-27T16:06:10.440Z,989.98
2016-03-27T16:07:10.443Z,989.98
2016-03-27T16:08:10.461Z,989.97
2016-03-27T16:09:10.465Z,989.98
2016-03-27T16:10:10.467Z,990.02
2016-03-27T16:11:10.484Z,989.98
2016-03-27T16:12:10.487Z,989.97
2016-03-27T16:13:10.506Z,989.99
2016-03-27T16:14:10.509Z,990.01
2016-03-27T16:15:10.511Z,990.08
2016-03-27T16:16:10.530Z,990.1
2016-03-27T16:17:10.533Z,990.1
2016-03-27T16:18:10.550Z,990.09
2016-03-27T16:19:10.600Z,990.11
2016-03-27T16:20:10.572Z,990.15
2016-03-27T16:21:10.591Z,990.08
2016-03-27T16:22:10.593Z,990.06
2016-03-27T16:23:10.596Z,990.1
2016-03-27T16:24:10.599Z,990.12
2016-03-27T16:25:10.616Z,990.08
2016-03-27T16:26:10.619Z,990.12
2016-03-27T16:27:10.638Z,990.11
2016-03-27T16:28:10.640Z,990.08
2016-03-27T16:29:10.643Z,990.11
2016-03-27T16:30:10.661Z,990.09
2016-03-27T16:31:10.663Z,990.11
2016-03-27T16:32:10.682Z,990.12
2016-03-27T16:33:10.685Z,990.15
2016-03-27T16:34:10.703Z,990.16
2016-03-27T16:35:10.706Z,990.17
2016-03-27T16:36:10.708Z,990.21
2016-03-27T16:37:10.726Z,990.22
2016-03-27T16:38:10.730Z,990.18
2016-03-27T16:39:10.748Z,990.22
2016-03-27T16:40:10.751Z,990.24
2016-03-27T16:41:10.769Z,990.25
2016-03-27T16:42:10.772Z,990.27
2016-03-27T16:43:10.775Z,990.26
2016-03-27T16:45:10.795Z,990.32
2016-03-27T16:46:10.798Z,990.32
2016-03-27T16:47:10.816Z,990.32
2016-03-27T16:48:10.819Z,990.37
2016-03-27T16:49:10.822Z,990.33
2016-03-27T16:50:10.840Z,990.38
2016-03-27T16:51:10.842Z,990.3
2016-03-27T16:52:10.861Z,990.36
2016-03-27T16:53:10.864Z,990.41
2016-03-27T16:54:10.866Z,990.39
2016-03-27T16:55:10.885Z,990.42
2016-03-27T16:56:10.888Z,990.43
2016-03-27T16:57:10.890Z,990.39
2016-03-27T16:58:10.908Z,990.5
2016-03-27T16:59:10.910Z,990.52
2016-03-27T17:00:10.914Z,990.51
2016-03-27T17:01:10.932Z,990.51
2016-03-27T17:02:10.934Z,990.58
2016-03-27T17:03:10.938Z,990.56
2016-03-27T17:04:10.956Z,990.57
2016-03-27T17:05:10.959Z,990.55
2016-03-27T17:06:10.962Z,990.61
2016-03-27T17:07:10.979Z,990.59
2016-03-27T17:08:10.982Z,990.62
2016-03-27T17:09:10.985Z,990.64
2016-03-27T17:10:11.004Z,990.64
2016-03-27T17:11:11.006Z,990.71
2016-03-27T17:12:11.009Z,990.73
2016-03-27T17:13:11.011Z,990.68
2016-03-27T17:14:11.029Z,990.72
2016-03-27T17:15:11.032Z,990.71
